sensor_id;sensor_type;location;lat;lon;timestamp;pressure;altitude;pressure_sealevel;temperature;humidity
61524;BME280;47393;38.758;-9.164;2022-07-25T00:00:40;100828.44;;;18.22;82.57
61524;BME280;47393;38.758;-9.164;2022-07-25T00:02:43;100824.44;;;18.26;82.01
61524;BME280;47393;38.758;-9.164;2022-07-25T00:04:44;100793.81;;;18.06;81.92
61524;BME280;47393;38.758;-9.164;2022-07-25T00:06:45;100831.63;;;18.34;81.12
61524;BME280;47393;38.758;-9.164;2022-07-25T00:08:46;100822.66;;;18.27;81.33
61524;BME280;47393;38.758;-9.164;2022-07-25T00:10:46;100804.94;;;18.09;81.59
61524;BME280;47393;38.758;-9.164;2022-07-25T00:12:47;100839.13;;;18.30;80.66
61524;BME280;47393;38.758;-9.164;2022-07-25T00:14:48;100788.34;;;18.15;80.24
61524;BME280;47393;38.758;-9.164;2022-07-25T00:16:49;100790.00;;;18.16;79.56
61524;BME280;47393;38.758;-9.164;2022-07-25T00:18:50;100819.13;;;18.26;79.96
61524;BME280;47393;38.758;-9.164;2022-07-25T00:20:52;100825.16;;;18.28;79.13
61524;BME280;47393;38.758;-9.164;2022-07-25T00:22:52;100826.78;;;18.21;78.91
61524;BME280;47393;38.758;-9.164;2022-07-25T00:24:53;100808.13;;;18.05;79.45
61524;BME280;47393;38.758;-9.164;2022-07-25T00:26:54;100816.81;;;18.23;78.79
61524;BME280;47393;38.758;-9.164;2022-07-25T00:28:55;100833.13;;;18.37;79.01
61524;BME280;47393;38.758;-9.164;2022-07-25T00:30:56;100823.13;;;18.14;79.85
61524;BME280;47393;38.758;-9.164;2022-07-25T00:32:58;100838.75;;;18.17;80.12
61524;BME280;47393;38.758;-9.164;2022-07-25T00:34:59;100843.75;;;18.20;80.48
61524;BME280;47393;38.758;-9.164;2022-07-25T00:36:59;100839.91;;;18.14;80.26
61524;BME280;47393;38.758;-9.164;2022-07-25T00:39:00;100766.69;;;17.59;80.86
61524;BME280;47393;38.758;-9.164;2022-07-25T00:41:02;100829.88;;;17.92;81.22
61524;BME280;47393;38.758;-9.164;2022-07-25T00:43:03;100831.75;;;18.00;81.81
61524;BME280;47393;38.758;-9.164;2022-07-25T00:45:05;100831.72;;;17.91;82.36
61524;BME280;47393;38.758;-9.164;2022-07-25T00:47:06;100828.31;;;17.89;82.54
61524;BME280;47393;38.758;-9.164;2022-07-25T00:49:07;100829.19;;;17.90;82.24
61524;BME280;47393;38.758;-9.164;2022-07-25T00:51:09;100834.66;;;17.88;82.77
61524;BME280;47393;38.758;-9.164;2022-07-25T00:53:13;100795.66;;;17.62;83.36
61524;BME280;47393;38.758;-9.164;2022-07-25T00:55:14;100812.81;;;17.76;83.76
61524;BME280;47393;38.758;-9.164;2022-07-25T00:57:16;100824.94;;;17.71;84.49
61524;BME280;47393;38.758;-9.164;2022-07-25T00:59:17;100808.44;;;17.59;85.24
61524;BME280;47393;38.758;-9.164;2022-07-25T01:01:19;100830.53;;;17.59;86.07
61524;BME280;47393;38.758;-9.164;2022-07-25T01:03:20;100820.06;;;17.58;86.52
61524;BME280;47393;38.758;-9.164;2022-07-25T01:05:21;100823.53;;;17.50;87.18
61524;BME280;47393;38.758;-9.164;2022-07-25T01:07:22;100819.19;;;17.49;87.17
61524;BME280;47393;38.758;-9.164;2022-07-25T01:09:24;100808.88;;;17.46;87.69
61524;BME280;47393;38.758;-9.164;2022-07-25T01:11:25;100816.66;;;17.39;87.83
61524;BME280;47393;38.758;-9.164;2022-07-25T01:13:26;100801.00;;;17.28;88.28
61524;BME280;47393;38.758;-9.164;2022-07-25T01:15:27;100789.78;;;17.16;88.82
61524;BME280;47393;38.758;-9.164;2022-07-25T01:17:28;100795.41;;;17.13;88.84
61524;BME280;47393;38.758;-9.164;2022-07-25T01:19:29;100813.75;;;17.24;89.53
61524;BME280;47393;38.758;-9.164;2022-07-25T01:21:30;100805.13;;;17.22;89.37
61524;BME280;47393;38.758;-9.164;2022-07-25T01:23:31;100807.47;;;17.25;89.70
61524;BME280;47393;38.758;-9.164;2022-07-25T01:25:32;100807.81;;;17.30;89.21
61524;BME280;47393;38.758;-9.164;2022-07-25T01:27:32;100792.66;;;17.23;89.13
61524;BME280;47393;38.758;-9.164;2022-07-25T01:29:33;100803.50;;;17.29;88.66
61524;BME280;47393;38.758;-9.164;2022-07-25T01:31:34;100801.44;;;17.23;88.68
61524;BME280;47393;38.758;-9.164;2022-07-25T01:33:35;100808.66;;;17.31;88.55
61524;BME280;47393;38.758;-9.164;2022-07-25T01:35:36;100786.19;;;17.25;88.88
61524;BME280;47393;38.758;-9.164;2022-07-25T01:37:37;100802.81;;;17.27;88.90
61524;BME280;47393;38.758;-9.164;2022-07-25T01:39:38;100758.47;;;17.02;89.22
61524;BME280;47393;38.758;-9.164;2022-07-25T01:41:42;100799.28;;;17.19;89.31
61524;BME280;47393;38.758;-9.164;2022-07-25T01:43:43;100801.59;;;17.22;89.43
61524;BME280;47393;38.758;-9.164;2022-07-25T01:45:44;100800.78;;;17.21;89.68
61524;BME280;47393;38.758;-9.164;2022-07-25T01:47:45;100757.75;;;16.91;89.45
61524;BME280;47393;38.758;-9.164;2022-07-25T01:49:46;100798.28;;;17.20;89.91
61524;BME280;47393;38.758;-9.164;2022-07-25T01:51:47;100790.41;;;17.10;90.10
61524;BME280;47393;38.758;-9.164;2022-07-25T01:53:48;100776.72;;;16.97;90.54
61524;BME280;47393;38.758;-9.164;2022-07-25T01:55:49;100803.66;;;17.02;90.61
61524;BME280;47393;38.758;-9.164;2022-07-25T01:57:50;100740.59;;;16.59;91.37
61524;BME280;47393;38.758;-9.164;2022-07-25T01:59:51;100798.16;;;16.95;91.27
61524;BME280;47393;38.758;-9.164;2022-07-25T02:01:52;100763.28;;;16.80;91.04
61524;BME280;47393;38.758;-9.164;2022-07-25T02:03:53;100786.81;;;16.93;91.17
61524;BME280;47393;38.758;-9.164;2022-07-25T02:06:02;100775.59;;;16.81;91.61
61524;BME280;47393;38.758;-9.164;2022-07-25T02:08:03;100780.59;;;16.84;92.18
61524;BME280;47393;38.758;-9.164;2022-07-25T02:10:05;100788.72;;;16.83;92.60
61524;BME280;47393;38.758;-9.164;2022-07-25T02:12:07;100780.75;;;16.83;92.35
61524;BME280;47393;38.758;-9.164;2022-07-25T02:14:08;100791.78;;;16.88;92.03
61524;BME280;47393;38.758;-9.164;2022-07-25T02:16:09;100732.09;;;16.56;91.75
61524;BME280;47393;38.758;-9.164;2022-07-25T02:18:10;100790.25;;;16.85;91.72
61524;BME280;47393;38.758;-9.164;2022-07-25T02:20:11;100778.50;;;16.88;91.46
61524;BME280;47393;38.758;-9.164;2022-07-25T02:22:12;100708.25;;;16.38;91.84
61524;BME280;47393;38.758;-9.164;2022-07-25T02:24:14;100783.25;;;16.84;91.78
61524;BME280;47393;38.758;-9.164;2022-07-25T02:26:14;100776.91;;;16.77;92.04
61524;BME280;47393;38.758;-9.164;2022-07-25T02:28:15;100783.50;;;16.91;91.38
61524;BME280;47393;38.758;-9.164;2022-07-25T02:30:16;100784.63;;;16.88;91.55
61524;BME280;47393;38.758;-9.164;2022-07-25T02:32:17;100748.25;;;16.63;91.90
61524;BME280;47393;38.758;-9.164;2022-07-25T02:34:19;100787.13;;;16.90;91.62
61524;BME280;47393;38.758;-9.164;2022-07-25T02:36:20;100786.31;;;16.89;91.30
61524;BME280;47393;38.758;-9.164;2022-07-25T02:38:21;100788.06;;;16.81;91.66
61524;BME280;47393;38.758;-9.164;2022-07-25T02:40:22;100782.69;;;16.72;92.31
61524;BME280;47393;38.758;-9.164;2022-07-25T02:42:23;100779.78;;;16.66;92.26
61524;BME280;47393;38.758;-9.164;2022-07-25T02:44:24;100774.06;;;16.52;92.71
61524;BME280;47393;38.758;-9.164;2022-07-25T02:46:25;100788.91;;;16.63;92.41
61524;BME280;47393;38.758;-9.164;2022-07-25T02:48:26;100793.22;;;16.64;92.40
61524;BME280;47393;38.758;-9.164;2022-07-25T02:50:27;100775.50;;;16.47;91.85
61524;BME280;47393;38.758;-9.164;2022-07-25T02:52:27;100794.06;;;16.65;91.94
61524;BME280;47393;38.758;-9.164;2022-07-25T02:54:28;100787.53;;;16.59;90.95
61524;BME280;47393;38.758;-9.164;2022-07-25T02:56:29;100783.34;;;16.74;89.33
61524;BME280;47393;38.758;-9.164;2022-07-25T02:58:30;100799.50;;;16.81;89.41
61524;BME280;47393;38.758;-9.164;2022-07-25T03:00:31;100792.91;;;16.85;88.26
61524;BME280;47393;38.758;-9.164;2022-07-25T03:02:31;100798.19;;;17.03;87.37
61524;BME280;47393;38.758;-9.164;2022-07-25T03:04:32;100801.31;;;16.99;87.08
61524;BME280;47393;38.758;-9.164;2022-07-25T03:06:33;100803.31;;;16.97;86.95
61524;BME280;47393;38.758;-9.164;2022-07-25T03:08:34;100799.34;;;17.01;86.72
61524;BME280;47393;38.758;-9.164;2022-07-25T03:10:35;100799.94;;;16.94;86.65
61524;BME280;47393;38.758;-9.164;2022-07-25T03:12:36;100803.31;;;16.97;86.36
61524;BME280;47393;38.758;-9.164;2022-07-25T03:14:37;100810.63;;;17.03;86.05
61524;BME280;47393;38.758;-9.164;2022-07-25T03:16:38;100806.47;;;17.00;86.21
61524;BME280;47393;38.758;-9.164;2022-07-25T03:18:39;100803.34;;;17.05;85.85
61524;BME280;47393;38.758;-9.164;2022-07-25T03:20:40;100799.34;;;17.01;85.23
61524;BME280;47393;38.758;-9.164;2022-07-25T03:22:41;100773.56;;;16.75;86.50
61524;BME280;47393;38.758;-9.164;2022-07-25T03:24:42;100786.31;;;16.89;86.16
61524;BME280;47393;38.758;-9.164;2022-07-25T03:26:42;100768.25;;;16.75;86.29
61524;BME280;47393;38.758;-9.164;2022-07-25T03:28:43;100773.44;;;16.58;86.69
61524;BME280;47393;38.758;-9.164;2022-07-25T03:30:44;100802.25;;;16.71;87.28
61524;BME280;47393;38.758;-9.164;2022-07-25T03:32:45;100740.53;;;16.33;87.97
61524;BME280;47393;38.758;-9.164;2022-07-25T03:34:46;100803.63;;;16.75;87.90
61524;BME280;47393;38.758;-9.164;2022-07-25T03:36:47;100762.38;;;16.45;88.46
61524;BME280;47393;38.758;-9.164;2022-07-25T03:38:47;100753.44;;;16.10;88.98
61524;BME280;47393;38.758;-9.164;2022-07-25T03:40:48;100798.81;;;16.35;90.43
61524;BME280;47393;38.758;-9.164;2022-07-25T03:42:49;100803.34;;;16.24;90.49
61524;BME280;47393;38.758;-9.164;2022-07-25T03:44:50;100784.53;;;16.36;90.77
61524;BME280;47393;38.758;-9.164;2022-07-25T03:46:51;100804.16;;;16.43;90.95
61524;BME280;47393;38.758;-9.164;2022-07-25T03:48:52;100757.47;;;16.14;90.89
61524;BME280;47393;38.758;-9.164;2022-07-25T03:50:55;100798.88;;;16.25;91.52
61524;BME280;47393;38.758;-9.164;2022-07-25T03:52:55;100797.44;;;16.31;91.79
61524;BME280;47393;38.758;-9.164;2022-07-25T03:54:56;100806.47;;;16.38;91.11
61524;BME280;47393;38.758;-9.164;2022-07-25T03:56:57;100791.75;;;16.25;90.87
61524;BME280;47393;38.758;-9.164;2022-07-25T03:58:58;100781.59;;;16.21;90.87
61524;BME280;47393;38.758;-9.164;2022-07-25T04:00:59;100785.00;;;16.31;89.90
61524;BME280;47393;38.758;-9.164;2022-07-25T04:03:00;100769.91;;;16.14;90.03
61524;BME280;47393;38.758;-9.164;2022-07-25T04:05:01;100788.41;;;16.23;89.34
61524;BME280;47393;38.758;-9.164;2022-07-25T04:07:02;100804.13;;;16.35;89.05
61524;BME280;47393;38.758;-9.164;2022-07-25T04:09:03;100788.94;;;16.09;90.01
61524;BME280;47393;38.758;-9.164;2022-07-25T04:11:04;100807.22;;;16.12;89.91
61524;BME280;47393;38.758;-9.164;2022-07-25T04:13:05;100761.56;;;15.90;89.89
61524;BME280;47393;38.758;-9.164;2022-07-25T04:15:06;100810.94;;;16.19;89.74
61524;BME280;47393;38.758;-9.164;2022-07-25T04:17:08;100801.69;;;16.23;88.49
61524;BME280;47393;38.758;-9.164;2022-07-25T04:19:09;100814.19;;;16.31;89.03
61524;BME280;47393;38.758;-9.164;2022-07-25T04:21:10;100817.75;;;16.40;88.74
61524;BME280;47393;38.758;-9.164;2022-07-25T04:23:10;100752.38;;;16.03;88.65
61524;BME280;47393;38.758;-9.164;2022-07-25T04:25:11;100804.78;;;16.19;89.10
61524;BME280;47393;38.758;-9.164;2022-07-25T04:27:12;100820.63;;;16.29;88.94
61524;BME280;47393;38.758;-9.164;2022-07-25T04:29:13;100778.84;;;16.13;87.58
61524;BME280;47393;38.758;-9.164;2022-07-25T04:31:15;100826.69;;;16.39;88.46
61524;BME280;47393;38.758;-9.164;2022-07-25T04:33:16;100824.41;;;16.26;88.75
61524;BME280;47393;38.758;-9.164;2022-07-25T04:35:17;100819.94;;;16.08;89.08
61524;BME280;47393;38.758;-9.164;2022-07-25T04:37:18;100822.97;;;16.14;89.33
61524;BME280;47393;38.758;-9.164;2022-07-25T04:39:19;100809.47;;;16.07;88.64
61524;BME280;47393;38.758;-9.164;2022-07-25T04:41:20;100786.09;;;15.93;89.04
61524;BME280;47393;38.758;-9.164;2022-07-25T04:43:21;100820.63;;;16.29;87.21
61524;BME280;47393;38.758;-9.164;2022-07-25T04:45:25;100759.72;;;15.91;86.77
61524;BME280;47393;38.758;-9.164;2022-07-25T04:47:26;100813.78;;;16.26;86.27
61524;BME280;47393;38.758;-9.164;2022-07-25T04:49:27;100827.56;;;16.39;86.33
61524;BME280;47393;38.758;-9.164;2022-07-25T04:51:28;100836.56;;;16.29;86.66
61524;BME280;47393;38.758;-9.164;2022-07-25T04:53:29;100824.88;;;16.03;87.64
61524;BME280;47393;38.758;-9.164;2022-07-25T04:55:30;100797.50;;;15.75;88.73
61524;BME280;47393;38.758;-9.164;2022-07-25T04:57:31;100785.34;;;15.72;88.78
61524;BME280;47393;38.758;-9.164;2022-07-25T04:59:32;100830.41;;;16.10;88.78
61524;BME280;47393;38.758;-9.164;2022-07-25T05:01:34;100831.41;;;16.09;88.82
61524;BME280;47393;38.758;-9.164;2022-07-25T05:03:37;100838.06;;;16.13;88.36
61524;BME280;47393;38.758;-9.164;2022-07-25T05:05:38;100817.88;;;16.02;88.10
61524;BME280;47393;38.758;-9.164;2022-07-25T05:07:39;100827.28;;;15.97;87.64
61524;BME280;47393;38.758;-9.164;2022-07-25T05:09:40;100785.25;;;15.64;88.60
61524;BME280;47393;38.758;-9.164;2022-07-25T05:11:41;100838.41;;;16.00;88.88
61524;BME280;47393;38.758;-9.164;2022-07-25T05:13:42;100840.09;;;16.01;88.81
61524;BME280;47393;38.758;-9.164;2022-07-25T05:15:43;100816.56;;;15.88;88.46
61524;BME280;47393;38.758;-9.164;2022-07-25T05:17:44;100788.31;;;15.69;88.83
61524;BME280;47393;38.758;-9.164;2022-07-25T05:19:45;100841.78;;;16.02;88.81
61524;BME280;47393;38.758;-9.164;2022-07-25T05:21:46;100776.53;;;15.54;89.23
61524;BME280;47393;38.758;-9.164;2022-07-25T05:23:47;100846.72;;;15.87;89.40
61524;BME280;47393;38.758;-9.164;2022-07-25T05:25:48;100834.06;;;15.71;90.21
61524;BME280;47393;38.758;-9.164;2022-07-25T05:27:49;100815.44;;;15.63;89.97
61524;BME280;47393;38.758;-9.164;2022-07-25T05:29:50;100837.41;;;15.83;89.38
61524;BME280;47393;38.758;-9.164;2022-07-25T05:31:51;100854.47;;;15.99;88.49
61524;BME280;47393;38.758;-9.164;2022-07-25T05:33:53;100840.59;;;15.77;89.19
61524;BME280;47393;38.758;-9.164;2022-07-25T05:35:54;100858.66;;;15.73;89.93
61524;BME280;47393;38.758;-9.164;2022-07-25T05:37:55;100835.50;;;15.66;89.48
61524;BME280;47393;38.758;-9.164;2022-07-25T05:39:56;100857.53;;;15.76;89.43
61524;BME280;47393;38.758;-9.164;2022-07-25T05:42:00;100858.63;;;15.83;88.62
61524;BME280;47393;38.758;-9.164;2022-07-25T05:44:04;100872.22;;;15.98;88.11
61524;BME280;47393;38.758;-9.164;2022-07-25T05:46:05;100866.63;;;16.01;87.37
61524;BME280;47393;38.758;-9.164;2022-07-25T05:48:06;100871.25;;;15.99;87.37
61524;BME280;47393;38.758;-9.164;2022-07-25T05:50:08;100858.34;;;16.04;86.96
61524;BME280;47393;38.758;-9.164;2022-07-25T05:52:09;100842.22;;;15.98;86.42
61524;BME280;47393;38.758;-9.164;2022-07-25T05:54:09;100864.78;;;16.30;85.91
61524;BME280;47393;38.758;-9.164;2022-07-25T05:56:10;100859.25;;;16.59;83.89
61524;BME280;47393;38.758;-9.164;2022-07-25T05:58:11;100859.25;;;16.95;81.30
61524;BME280;47393;38.758;-9.164;2022-07-25T06:00:12;100872.47;;;17.31;79.55
61524;BME280;47393;38.758;-9.164;2022-07-25T06:02:14;100852.78;;;17.50;78.06
61524;BME280;47393;38.758;-9.164;2022-07-25T06:04:15;100851.44;;;17.89;76.27
61524;BME280;47393;38.758;-9.164;2022-07-25T06:06:16;100827.41;;;17.98;74.58
61524;BME280;47393;38.758;-9.164;2022-07-25T06:08:17;100877.78;;;18.76;72.12
61524;BME280;47393;38.758;-9.164;2022-07-25T06:10:19;100831.47;;;18.77;70.20
61524;BME280;47393;38.758;-9.164;2022-07-25T06:12:20;100879.13;;;19.85;67.33
61524;BME280;47393;38.758;-9.164;2022-07-25T06:14:21;100871.41;;;20.53;63.41
61524;BME280;47393;38.758;-9.164;2022-07-25T06:16:22;100834.94;;;20.84;61.52
61524;BME280;47393;38.758;-9.164;2022-07-25T06:18:24;100875.34;;;21.42;59.58
61524;BME280;47393;38.758;-9.164;2022-07-25T06:20:25;100891.91;;;21.37;58.53
61524;BME280;47393;38.758;-9.164;2022-07-25T06:22:26;100884.69;;;22.12;55.68
61524;BME280;47393;38.758;-9.164;2022-07-25T06:24:27;100882.03;;;23.21;52.77
61524;BME280;47393;38.758;-9.164;2022-07-25T06:26:27;100889.69;;;23.87;50.19
61524;BME280;47393;38.758;-9.164;2022-07-25T06:28:28;100892.69;;;24.19;49.16
61524;BME280;47393;38.758;-9.164;2022-07-25T06:30:29;100876.03;;;24.97;45.98
61524;BME280;47393;38.758;-9.164;2022-07-25T06:32:31;100874.19;;;24.71;45.19
61524;BME280;47393;38.758;-9.164;2022-07-25T06:34:32;100865.50;;;23.52;47.79
61524;BME280;47393;38.758;-9.164;2022-07-25T06:36:33;100888.31;;;24.18;46.67
61524;BME280;47393;38.758;-9.164;2022-07-25T06:38:35;100891.28;;;25.70;43.37
61524;BME280;47393;38.758;-9.164;2022-07-25T06:40:36;100885.25;;;25.62;41.36
61524;BME280;47393;38.758;-9.164;2022-07-25T06:42:42;100892.38;;;25.16;42.75
61524;BME280;47393;38.758;-9.164;2022-07-25T06:44:44;100900.91;;;24.86;43.14
61524;BME280;47393;38.758;-9.164;2022-07-25T06:46:44;100899.59;;;25.29;41.89
61524;BME280;47393;38.758;-9.164;2022-07-25T06:48:45;100890.47;;;25.56;41.09
61524;BME280;47393;38.758;-9.164;2022-07-25T06:50:46;100864.50;;;25.82;40.16
61524;BME280;47393;38.758;-9.164;2022-07-25T06:52:47;100868.88;;;26.54;38.79
61524;BME280;47393;38.758;-9.164;2022-07-25T06:54:48;100906.81;;;26.91;38.36
61524;BME280;47393;38.758;-9.164;2022-07-25T06:56:49;100898.06;;;27.58;37.01
61524;BME280;47393;38.758;-9.164;2022-07-25T06:58:49;100907.22;;;26.88;38.53
61524;BME280;47393;38.758;-9.164;2022-07-25T07:00:50;100886.22;;;27.15;37.95
61524;BME280;47393;38.758;-9.164;2022-07-25T07:02:56;100909.09;;;27.56;37.77
61524;BME280;47393;38.758;-9.164;2022-07-25T07:04:58;100910.38;;;27.35;37.85
61524;BME280;47393;38.758;-9.164;2022-07-25T07:06:58;100892.66;;;28.25;36.57
61524;BME280;47393;38.758;-9.164;2022-07-25T07:08:59;100891.78;;;28.74;34.94
61524;BME280;47393;38.758;-9.164;2022-07-25T07:11:00;100907.91;;;28.92;34.81
61524;BME280;47393;38.758;-9.164;2022-07-25T07:15:04;100917.25;;;29.20;34.37
61524;BME280;47393;38.758;-9.164;2022-07-25T07:17:08;100914.31;;;28.56;35.45
61524;BME280;47393;38.758;-9.164;2022-07-25T07:19:09;100921.06;;;30.53;32.51
61524;BME280;47393;38.758;-9.164;2022-07-25T07:21:10;100914.56;;;29.96;32.85
61524;BME280;47393;38.758;-9.164;2022-07-25T07:23:11;100920.28;;;29.59;33.10
61524;BME280;47393;38.758;-9.164;2022-07-25T07:25:13;100911.94;;;29.13;33.55
61524;BME280;47393;38.758;-9.164;2022-07-25T07:27:14;100913.75;;;28.05;35.74
61524;BME280;47393;38.758;-9.164;2022-07-25T07:29:15;100916.38;;;27.93;36.03
61524;BME280;47393;38.758;-9.164;2022-07-25T07:31:16;100895.78;;;28.41;34.73
61524;BME280;47393;38.758;-9.164;2022-07-25T07:33:17;100921.50;;;28.01;35.55
61524;BME280;47393;38.758;-9.164;2022-07-25T07:35:18;100917.19;;;27.38;37.07
61524;BME280;47393;38.758;-9.164;2022-07-25T07:37:18;100912.41;;;28.44;35.51
61524;BME280;47393;38.758;-9.164;2022-07-25T07:39:19;100920.41;;;29.05;34.77
61524;BME280;47393;38.758;-9.164;2022-07-25T07:41:20;100912.84;;;28.72;34.88
61524;BME280;47393;38.758;-9.164;2022-07-25T07:43:21;100902.34;;;27.84;36.15
61524;BME280;47393;38.758;-9.164;2022-07-25T07:45:23;100901.16;;;28.29;35.13
61524;BME280;47393;38.758;-9.164;2022-07-25T07:47:24;100910.75;;;29.09;34.05
61524;BME280;47393;38.758;-9.164;2022-07-25T07:49:25;100918.19;;;29.38;33.24
61524;BME280;47393;38.758;-9.164;2022-07-25T07:51:26;100893.63;;;30.20;31.51
61524;BME280;47393;38.758;-9.164;2022-07-25T07:53:28;100914.47;;;29.79;32.20
61524;BME280;47393;38.758;-9.164;2022-07-25T07:55:47;100914.84;;;30.12;31.74
61524;BME280;47393;38.758;-9.164;2022-07-25T07:57:48;100903.09;;;29.54;32.13
61524;BME280;47393;38.758;-9.164;2022-07-25T07:59:49;100910.28;;;29.12;32.88
61524;BME280;47393;38.758;-9.164;2022-07-25T08:01:49;100909.69;;;29.46;32.40
61524;BME280;47393;38.758;-9.164;2022-07-25T08:03:50;100916.28;;;29.50;31.76
61524;BME280;47393;38.758;-9.164;2022-07-25T08:05:51;100872.88;;;29.74;31.94
61524;BME280;47393;38.758;-9.164;2022-07-25T08:07:52;100916.38;;;31.72;29.07
61524;BME280;47393;38.758;-9.164;2022-07-25T08:09:53;100917.50;;;32.53;27.76
61524;BME280;47393;38.758;-9.164;2022-07-25T08:11:54;100913.88;;;31.93;27.87
61524;BME280;47393;38.758;-9.164;2022-07-25T08:13:55;100889.25;;;32.27;27.45
61524;BME280;47393;38.758;-9.164;2022-07-25T08:15:58;100932.59;;;32.66;26.90
61524;BME280;47393;38.758;-9.164;2022-07-25T08:17:59;100927.13;;;33.31;25.76
61524;BME280;47393;38.758;-9.164;2022-07-25T08:20:00;100922.47;;;33.26;24.77
61524;BME280;47393;38.758;-9.164;2022-07-25T08:22:01;100935.31;;;32.66;25.79
61524;BME280;47393;38.758;-9.164;2022-07-25T08:24:01;100928.84;;;32.40;25.81
61524;BME280;47393;38.758;-9.164;2022-07-25T08:26:03;100940.34;;;32.20;25.77
61524;BME280;47393;38.758;-9.164;2022-07-25T08:28:05;100933.38;;;31.85;26.38
61524;BME280;47393;38.758;-9.164;2022-07-25T08:30:07;100931.22;;;32.96;25.08
61524;BME280;47393;38.758;-9.164;2022-07-25T08:32:08;100936.22;;;33.09;24.63
61524;BME280;47393;38.758;-9.164;2022-07-25T08:34:09;100929.59;;;33.91;23.22
61524;BME280;47393;38.758;-9.164;2022-07-25T08:36:09;100931.22;;;33.82;23.30
61524;BME280;47393;38.758;-9.164;2022-07-25T08:38:10;100925.97;;;33.22;24.16
61524;BME280;47393;38.758;-9.164;2022-07-25T08:40:12;100920.13;;;33.08;24.47
61524;BME280;47393;38.758;-9.164;2022-07-25T08:42:14;100943.34;;;33.58;24.17
61524;BME280;47393;38.758;-9.164;2022-07-25T08:44:16;100919.06;;;32.44;25.71
61524;BME280;47393;38.758;-9.164;2022-07-25T08:46:18;100934.84;;;33.50;24.36
61524;BME280;47393;38.758;-9.164;2022-07-25T08:48:22;100933.56;;;34.93;22.13
61524;BME280;47393;38.758;-9.164;2022-07-25T08:50:26;100925.38;;;35.08;21.86
61524;BME280;47393;38.758;-9.164;2022-07-25T08:52:27;100920.97;;;34.40;22.67
61524;BME280;47393;38.758;-9.164;2022-07-25T08:54:29;100936.88;;;34.79;21.98
61524;BME280;47393;38.758;-9.164;2022-07-25T08:56:30;100928.63;;;34.38;22.31
61524;BME280;47393;38.758;-9.164;2022-07-25T08:58:31;100893.34;;;34.06;22.76
61524;BME280;47393;38.758;-9.164;2022-07-25T09:00:32;100925.91;;;35.00;22.22
61524;BME280;47393;38.758;-9.164;2022-07-25T09:02:32;100923.88;;;35.52;21.55
61524;BME280;47393;38.758;-9.164;2022-07-25T09:04:33;100920.78;;;35.84;20.58
61524;BME280;47393;38.758;-9.164;2022-07-25T09:06:34;100928.88;;;34.31;22.58
61524;BME280;47393;38.758;-9.164;2022-07-25T09:08:35;100912.88;;;35.73;21.41
61524;BME280;47393;38.758;-9.164;2022-07-25T09:10:36;100920.50;;;37.00;19.81
61524;BME280;47393;38.758;-9.164;2022-07-25T09:12:39;100929.72;;;37.09;18.80
61524;BME280;47393;38.758;-9.164;2022-07-25T09:14:43;100937.69;;;37.83;17.99
61524;BME280;47393;38.758;-9.164;2022-07-25T09:16:45;100912.13;;;35.57;20.49
61524;BME280;47393;38.758;-9.164;2022-07-25T09:18:46;100930.78;;;35.29;20.98
61524;BME280;47393;38.758;-9.164;2022-07-25T09:20:51;100932.13;;;35.47;21.11
61524;BME280;47393;38.758;-9.164;2022-07-25T09:22:52;100918.75;;;36.00;20.95
61524;BME280;47393;38.758;-9.164;2022-07-25T09:24:53;100910.56;;;37.04;19.62
61524;BME280;47393;38.758;-9.164;2022-07-25T09:26:56;100934.81;;;35.52;21.21
61524;BME280;47393;38.758;-9.164;2022-07-25T09:29:01;100914.72;;;35.93;20.75
61524;BME280;47393;38.758;-9.164;2022-07-25T09:31:02;100911.66;;;35.24;20.99
61524;BME280;47393;38.758;-9.164;2022-07-25T09:33:03;100889.50;;;35.41;20.89
61524;BME280;47393;38.758;-9.164;2022-07-25T09:35:04;100909.81;;;34.73;21.89
61524;BME280;47393;38.758;-9.164;2022-07-25T09:37:09;100921.53;;;34.63;22.21
61524;BME280;47393;38.758;-9.164;2022-07-25T09:39:11;100933.25;;;35.41;21.02
61524;BME280;47393;38.758;-9.164;2022-07-25T09:41:12;100920.47;;;35.05;21.83
61524;BME280;47393;38.758;-9.164;2022-07-25T09:43:13;100924.28;;;34.99;21.65
61524;BME280;47393;38.758;-9.164;2022-07-25T09:45:14;100925.25;;;35.60;21.13
61524;BME280;47393;38.758;-9.164;2022-07-25T09:47:15;100922.63;;;35.94;20.18
61524;BME280;47393;38.758;-9.164;2022-07-25T09:49:15;100940.44;;;36.42;19.97
61524;BME280;47393;38.758;-9.164;2022-07-25T09:51:17;100930.03;;;36.78;19.71
61524;BME280;47393;38.758;-9.164;2022-07-25T09:53:17;100926.72;;;37.83;18.53
61524;BME280;47393;38.758;-9.164;2022-07-25T09:55:20;100952.31;;;39.62;17.08
61524;BME280;47393;38.758;-9.164;2022-07-25T09:57:22;100941.19;;;39.68;16.48
61524;BME280;47393;38.758;-9.164;2022-07-25T09:59:23;100943.63;;;39.41;17.07
61524;BME280;47393;38.758;-9.164;2022-07-25T10:01:44;100950.38;;;40.50;16.04
61524;BME280;47393;38.758;-9.164;2022-07-25T10:04:40;100926.81;;;39.57;16.23
61524;BME280;47393;38.758;-9.164;2022-07-25T10:08:20;100946.53;;;41.14;14.71
61524;BME280;47393;38.758;-9.164;2022-07-25T10:10:29;100936.13;;;40.34;15.77
61524;BME280;47393;38.758;-9.164;2022-07-25T10:12:30;100934.94;;;40.26;15.84
61524;BME280;47393;38.758;-9.164;2022-07-25T10:14:32;100957.69;;;39.68;15.88
61524;BME280;47393;38.758;-9.164;2022-07-25T10:16:44;100947.69;;;39.30;16.01
61524;BME280;47393;38.758;-9.164;2022-07-25T10:18:51;100949.63;;;37.92;17.85
61524;BME280;47393;38.758;-9.164;2022-07-25T10:21:08;100943.47;;;37.57;18.29
61524;BME280;47393;38.758;-9.164;2022-07-25T10:23:19;100955.06;;;39.02;16.97
61524;BME280;47393;38.758;-9.164;2022-07-25T10:25:20;100942.81;;;39.69;16.60
61524;BME280;47393;38.758;-9.164;2022-07-25T10:27:23;100932.75;;;39.22;16.32
61524;BME280;47393;38.758;-9.164;2022-07-25T10:29:32;100954.63;;;36.83;18.86
61524;BME280;47393;38.758;-9.164;2022-07-25T10:31:36;100950.19;;;37.46;18.35